sensor_id;sensor_type;location;lat;lon;timestamp;P1;durP1;ratioP1;P2;durP2;ratioP2
21503;SDS011;10913;51.992;9.228;2023-06-14T00:02:10;4.47;;;2.63;;
21503;SDS011;10913;51.992;9.228;2023-06-14T00:04:35;3.40;;;2.40;;
21503;SDS011;10913;51.992;9.228;2023-06-14T00:07:02;4.20;;;2.67;;
21503;SDS011;10913;51.992;9.228;2023-06-14T00:09:28;3.47;;;2.63;;
21503;SDS011;10913;51.992;9.228;2023-06-14T00:11:53;2.67;;;2.40;;
21503;SDS011;10913;51.992;9.228;2023-06-14T00:14:19;2.67;;;2.47;;
21503;SDS011;10913;51.992;9.228;2023-06-14T00:16:44;4.70;;;2.60;;
21503;SDS011;10913;51.992;9.228;2023-06-14T00:19:10;2.65;;;2.40;;
21503;SDS011;10913;51.992;9.228;2023-06-14T00:21:36;3.25;;;2.80;;
21503;SDS011;10913;51.992;9.228;2023-06-14T00:24:02;3.10;;;2.45;;
21503;SDS011;10913;51.992;9.228;2023-06-14T00:26:29;3.80;;;2.75;;
21503;SDS011;10913;51.992;9.228;2023-06-14T00:28:54;4.63;;;2.60;;
21503;SDS011;10913;51.992;9.228;2023-06-14T00:31:21;4.07;;;2.60;;
21503;SDS011;10913;51.992;9.228;2023-06-14T00:33:46;4.43;;;2.60;;
21503;SDS011;10913;51.992;9.228;2023-06-14T00:36:12;2.40;;;2.20;;
21503;SDS011;10913;51.992;9.228;2023-06-14T00:38:37;3.17;;;2.42;;
21503;SDS011;10913;51.992;9.228;2023-06-14T00:41:03;3.10;;;2.80;;
21503;SDS011;10913;51.992;9.228;2023-06-14T00:43:28;3.38;;;2.50;;
21503;SDS011;10913;51.992;9.228;2023-06-14T00:45:54;2.80;;;2.53;;
21503;SDS011;10913;51.992;9.228;2023-06-14T00:48:19;3.13;;;2.40;;
21503;SDS011;10913;51.992;9.228;2023-06-14T00:50:45;3.63;;;2.45;;
21503;SDS011;10913;51.992;9.228;2023-06-14T00:53:11;3.75;;;2.42;;
21503;SDS011;10913;51.992;9.228;2023-06-14T00:55:40;4.18;;;2.80;;
21503;SDS011;10913;51.992;9.228;2023-06-14T00:58:06;5.22;;;2.58;;
21503;SDS011;10913;51.992;9.228;2023-06-14T01:00:31;2.70;;;2.50;;
21503;SDS011;10913;51.992;9.228;2023-06-14T01:02:57;4.88;;;2.85;;
21503;SDS011;10913;51.992;9.228;2023-06-14T01:05:22;2.97;;;2.70;;
21503;SDS011;10913;51.992;9.228;2023-06-14T01:08:03;2.70;;;2.50;;
21503;SDS011;10913;51.992;9.228;2023-06-14T01:13:23;3.28;;;2.60;;
21503;SDS011;10913;51.992;9.228;2023-06-14T01:16:10;3.15;;;2.60;;
21503;SDS011;10913;51.992;9.228;2023-06-14T01:18:36;2.80;;;2.60;;
21503;SDS011;10913;51.992;9.228;2023-06-14T01:21:01;3.80;;;2.70;;
21503;SDS011;10913;51.992;9.228;2023-06-14T01:23:30;4.53;;;2.63;;
21503;SDS011;10913;51.992;9.228;2023-06-14T01:25:57;3.00;;;2.70;;
21503;SDS011;10913;51.992;9.228;2023-06-14T01:28:22;4.05;;;2.55;;
21503;SDS011;10913;51.992;9.228;2023-06-14T01:30:50;4.47;;;2.83;;
21503;SDS011;10913;51.992;9.228;2023-06-14T01:33:19;3.05;;;2.42;;
21503;SDS011;10913;51.992;9.228;2023-06-14T01:35:48;2.65;;;2.42;;
21503;SDS011;10913;51.992;9.228;2023-06-14T01:38:17;4.40;;;2.50;;
21503;SDS011;10913;51.992;9.228;2023-06-14T01:40:44;3.22;;;2.70;;
21503;SDS011;10913;51.992;9.228;2023-06-14T01:43:13;5.28;;;2.47;;
21503;SDS011;10913;51.992;9.228;2023-06-14T01:45:40;2.85;;;2.50;;
21503;SDS011;10913;51.992;9.228;2023-06-14T01:48:06;4.25;;;2.70;;
21503;SDS011;10913;51.992;9.228;2023-06-14T01:50:32;4.05;;;2.50;;
21503;SDS011;10913;51.992;9.228;2023-06-14T01:52:58;4.05;;;2.72;;
21503;SDS011;10913;51.992;9.228;2023-06-14T01:55:23;2.92;;;2.63;;
21503;SDS011;10913;51.992;9.228;2023-06-14T01:57:52;2.85;;;2.60;;
21503;SDS011;10913;51.992;9.228;2023-06-14T02:00:18;4.40;;;2.85;;
21503;SDS011;10913;51.992;9.228;2023-06-14T02:02:44;5.38;;;2.60;;
21503;SDS011;10913;51.992;9.228;2023-06-14T02:05:11;3.15;;;2.50;;
21503;SDS011;10913;51.992;9.228;2023-06-14T02:07:36;2.80;;;2.58;;
21503;SDS011;10913;51.992;9.228;2023-06-14T02:10:02;3.90;;;2.67;;
21503;SDS011;10913;51.992;9.228;2023-06-14T02:12:29;3.38;;;2.60;;
21503;SDS011;10913;51.992;9.228;2023-06-14T02:14:54;5.40;;;2.60;;
21503;SDS011;10913;51.992;9.228;2023-06-14T02:17:21;2.90;;;2.50;;
21503;SDS011;10913;51.992;9.228;2023-06-14T02:19:47;4.00;;;2.50;;
21503;SDS011;10913;51.992;9.228;2023-06-14T02:22:12;3.00;;;2.70;;
21503;SDS011;10913;51.992;9.228;2023-06-14T02:24:40;5.32;;;2.75;;
21503;SDS011;10913;51.992;9.228;2023-06-14T02:27:05;3.85;;;2.60;;
21503;SDS011;10913;51.992;9.228;2023-06-14T02:29:31;2.60;;;2.40;;
21503;SDS011;10913;51.992;9.228;2023-06-14T02:31:56;2.97;;;2.60;;
21503;SDS011;10913;51.992;9.228;2023-06-14T02:34:22;3.17;;;2.58;;
21503;SDS011;10913;51.992;9.228;2023-06-14T02:36:47;2.90;;;2.60;;
21503;SDS011;10913;51.992;9.228;2023-06-14T02:39:13;4.10;;;2.85;;
21503;SDS011;10913;51.992;9.228;2023-06-14T02:41:38;3.50;;;2.30;;
21503;SDS011;10913;51.992;9.228;2023-06-14T02:44:04;2.85;;;2.60;;
21503;SDS011;10913;51.992;9.228;2023-06-14T02:46:30;3.05;;;2.78;;
21503;SDS011;10913;51.992;9.228;2023-06-14T02:48:55;2.80;;;2.33;;
21503;SDS011;10913;51.992;9.228;2023-06-14T02:51:21;2.90;;;2.60;;
21503;SDS011;10913;51.992;9.228;2023-06-14T02:53:46;3.90;;;2.63;;
21503;SDS011;10913;51.992;9.228;2023-06-14T02:56:11;3.00;;;2.70;;
21503;SDS011;10913;51.992;9.228;2023-06-14T02:58:37;3.03;;;2.58;;
21503;SDS011;10913;51.992;9.228;2023-06-14T03:01:04;3.88;;;2.33;;
21503;SDS011;10913;51.992;9.228;2023-06-14T03:03:30;3.40;;;2.60;;
21503;SDS011;10913;51.992;9.228;2023-06-14T03:05:56;2.75;;;2.55;;
21503;SDS011;10913;51.992;9.228;2023-06-14T03:08:22;3.08;;;2.55;;
21503;SDS011;10913;51.992;9.228;2023-06-14T03:10:52;3.30;;;2.80;;
21503;SDS011;10913;51.992;9.228;2023-06-14T03:13:18;3.65;;;2.50;;
21503;SDS011;10913;51.992;9.228;2023-06-14T03:15:46;4.05;;;2.20;;
21503;SDS011;10913;51.992;9.228;2023-06-14T03:18:12;2.65;;;2.45;;
21503;SDS011;10913;51.992;9.228;2023-06-14T03:20:39;2.80;;;2.60;;
21503;SDS011;10913;51.992;9.228;2023-06-14T03:23:06;3.05;;;2.70;;
21503;SDS011;10913;51.992;9.228;2023-06-14T03:25:32;4.20;;;2.40;;
21503;SDS011;10913;51.992;9.228;2023-06-14T03:28:00;2.78;;;2.58;;
21503;SDS011;10913;51.992;9.228;2023-06-14T03:30:26;4.55;;;2.53;;
21503;SDS011;10913;51.992;9.228;2023-06-14T03:32:52;3.80;;;2.67;;
21503;SDS011;10913;51.992;9.228;2023-06-14T03:35:17;2.42;;;2.22;;
21503;SDS011;10913;51.992;9.228;2023-06-14T03:37:44;4.03;;;2.78;;
21503;SDS011;10913;51.992;9.228;2023-06-14T03:40:11;3.38;;;2.63;;
21503;SDS011;10913;51.992;9.228;2023-06-14T03:42:37;2.80;;;2.47;;
21503;SDS011;10913;51.992;9.228;2023-06-14T03:45:03;3.35;;;2.53;;
21503;SDS011;10913;51.992;9.228;2023-06-14T03:47:29;2.75;;;2.42;;
21503;SDS011;10913;51.992;9.228;2023-06-14T03:49:54;3.25;;;2.55;;
21503;SDS011;10913;51.992;9.228;2023-06-14T03:52:20;3.80;;;2.65;;
21503;SDS011;10913;51.992;9.228;2023-06-14T03:54:47;3.97;;;2.78;;
21503;SDS011;10913;51.992;9.228;2023-06-14T03:57:12;3.55;;;2.80;;
21503;SDS011;10913;51.992;9.228;2023-06-14T03:59:38;2.67;;;2.47;;
21503;SDS011;10913;51.992;9.228;2023-06-14T04:02:03;3.30;;;2.58;;
21503;SDS011;10913;51.992;9.228;2023-06-14T04:04:29;3.00;;;2.70;;
21503;SDS011;10913;51.992;9.228;2023-06-14T04:06:57;3.75;;;2.90;;
21503;SDS011;10913;51.992;9.228;2023-06-14T04:09:24;3.10;;;2.78;;
21503;SDS011;10913;51.992;9.228;2023-06-14T04:11:50;3.38;;;2.78;;
21503;SDS011;10913;51.992;9.228;2023-06-14T04:14:17;3.05;;;2.75;;
21503;SDS011;10913;51.992;9.228;2023-06-14T04:16:44;2.88;;;2.50;;
21503;SDS011;10913;51.992;9.228;2023-06-14T04:19:10;3.92;;;3.17;;
21503;SDS011;10913;51.992;9.228;2023-06-14T04:21:35;3.05;;;2.63;;
21503;SDS011;10913;51.992;9.228;2023-06-14T04:24:00;4.00;;;2.65;;
21503;SDS011;10913;51.992;9.228;2023-06-14T04:26:27;3.47;;;2.72;;
21503;SDS011;10913;51.992;9.228;2023-06-14T04:28:58;4.35;;;3.00;;
21503;SDS011;10913;51.992;9.228;2023-06-14T04:31:28;3.25;;;2.80;;
21503;SDS011;10913;51.992;9.228;2023-06-14T04:33:54;3.75;;;2.63;;
21503;SDS011;10913;51.992;9.228;2023-06-14T04:36:20;3.58;;;3.05;;
21503;SDS011;10913;51.992;9.228;2023-06-14T04:38:46;2.72;;;2.50;;
21503;SDS011;10913;51.992;9.228;2023-06-14T04:41:12;2.30;;;2.10;;
21503;SDS011;10913;51.992;9.228;2023-06-14T04:43:37;2.67;;;2.30;;
21503;SDS011;10913;51.992;9.228;2023-06-14T04:46:04;3.63;;;2.13;;
21503;SDS011;10913;51.992;9.228;2023-06-14T04:48:30;3.67;;;2.25;;
21503;SDS011;10913;51.992;9.228;2023-06-14T04:50:56;2.42;;;2.22;;
21503;SDS011;10913;51.992;9.228;2023-06-14T04:53:22;2.42;;;1.90;;
21503;SDS011;10913;51.992;9.228;2023-06-14T04:55:48;2.38;;;2.10;;
21503;SDS011;10913;51.992;9.228;2023-06-14T04:58:15;3.03;;;2.00;;
21503;SDS011;10913;51.992;9.228;2023-06-14T05:00:41;2.40;;;2.00;;
21503;SDS011;10913;51.992;9.228;2023-06-14T05:03:08;2.28;;;2.00;;
21503;SDS011;10913;51.992;9.228;2023-06-14T05:05:34;3.38;;;2.20;;
21503;SDS011;10913;51.992;9.228;2023-06-14T05:07:59;3.22;;;2.42;;
21503;SDS011;10913;51.992;9.228;2023-06-14T05:10:25;2.40;;;2.20;;
21503;SDS011;10913;51.992;9.228;2023-06-14T05:12:50;2.70;;;2.10;;
21503;SDS011;10913;51.992;9.228;2023-06-14T05:15:17;3.22;;;2.15;;
21503;SDS011;10913;51.992;9.228;2023-06-14T05:17:43;3.47;;;2.15;;
21503;SDS011;10913;51.992;9.228;2023-06-14T05:20:08;2.50;;;2.25;;
21503;SDS011;10913;51.992;9.228;2023-06-14T05:22:35;3.63;;;2.33;;
21503;SDS011;10913;51.992;9.228;2023-06-14T05:25:01;3.08;;;2.10;;
21503;SDS011;10913;51.992;9.228;2023-06-14T05:27:26;3.15;;;1.98;;
21503;SDS011;10913;51.992;9.228;2023-06-14T05:29:52;2.97;;;1.88;;
21503;SDS011;10913;51.992;9.228;2023-06-14T05:32:20;3.92;;;2.30;;
21503;SDS011;10913;51.992;9.228;2023-06-14T05:34:45;5.90;;;2.25;;
21503;SDS011;10913;51.992;9.228;2023-06-14T05:37:11;2.70;;;2.13;;
21503;SDS011;10913;51.992;9.228;2023-06-14T05:39:36;2.63;;;2.35;;
21503;SDS011;10913;51.992;9.228;2023-06-14T05:42:02;2.58;;;2.30;;
21503;SDS011;10913;51.992;9.228;2023-06-14T05:44:27;2.85;;;1.90;;
21503;SDS011;10913;51.992;9.228;2023-06-14T05:46:52;2.25;;;2.05;;
21503;SDS011;10913;51.992;9.228;2023-06-14T05:49:18;3.17;;;2.10;;
21503;SDS011;10913;51.992;9.228;2023-06-14T05:51:43;3.20;;;2.17;;
21503;SDS011;10913;51.992;9.228;2023-06-14T05:54:08;3.25;;;2.10;;
21503;SDS011;10913;51.992;9.228;2023-06-14T05:56:34;2.50;;;2.30;;
21503;SDS011;10913;51.992;9.228;2023-06-14T05:58:59;4.72;;;2.45;;
21503;SDS011;10913;51.992;9.228;2023-06-14T06:01:25;3.28;;;2.45;;
21503;SDS011;10913;51.992;9.228;2023-06-14T06:03:51;3.20;;;2.40;;
21503;SDS011;10913;51.992;9.228;2023-06-14T06:06:16;3.75;;;2.55;;
21503;SDS011;10913;51.992;9.228;2023-06-14T06:08:42;4.07;;;2.50;;
21503;SDS011;10913;51.992;9.228;2023-06-14T06:11:07;3.08;;;2.45;;
21503;SDS011;10913;51.992;9.228;2023-06-14T06:13:33;3.33;;;2.50;;
21503;SDS011;10913;51.992;9.228;2023-06-14T06:15:59;2.70;;;1.85;;
21503;SDS011;10913;51.992;9.228;2023-06-14T06:18:25;2.97;;;2.45;;
21503;SDS011;10913;51.992;9.228;2023-06-14T06:20:50;2.55;;;2.00;;
21503;SDS011;10913;51.992;9.228;2023-06-14T06:23:16;4.55;;;2.40;;
21503;SDS011;10913;51.992;9.228;2023-06-14T06:25:42;5.38;;;2.22;;
21503;SDS011;10913;51.992;9.228;2023-06-14T06:28:07;3.83;;;2.25;;
21503;SDS011;10913;51.992;9.228;2023-06-14T06:30:33;3.40;;;2.45;;
21503;SDS011;10913;51.992;9.228;2023-06-14T06:32:58;3.10;;;2.47;;
21503;SDS011;10913;51.992;9.228;2023-06-14T06:35:24;2.78;;;2.20;;
21503;SDS011;10913;51.992;9.228;2023-06-14T06:37:49;2.75;;;2.30;;
21503;SDS011;10913;51.992;9.228;2023-06-14T06:40:15;2.40;;;2.20;;
21503;SDS011;10913;51.992;9.228;2023-06-14T06:42:41;2.88;;;2.30;;
21503;SDS011;10913;51.992;9.228;2023-06-14T06:45:06;3.72;;;2.80;;
21503;SDS011;10913;51.992;9.228;2023-06-14T06:47:32;5.93;;;2.78;;
21503;SDS011;10913;51.992;9.228;2023-06-14T06:49:57;4.75;;;2.72;;
21503;SDS011;10913;51.992;9.228;2023-06-14T06:52:23;3.70;;;2.40;;
21503;SDS011;10913;51.992;9.228;2023-06-14T06:54:48;3.35;;;2.15;;
21503;SDS011;10913;51.992;9.228;2023-06-14T06:57:15;3.10;;;2.30;;
21503;SDS011;10913;51.992;9.228;2023-06-14T06:59:40;4.78;;;2.40;;
21503;SDS011;10913;51.992;9.228;2023-06-14T07:02:06;3.92;;;2.33;;
21503;SDS011;10913;51.992;9.228;2023-06-14T07:04:31;3.70;;;2.30;;
21503;SDS011;10913;51.992;9.228;2023-06-14T07:06:56;4.60;;;3.00;;
21503;SDS011;10913;51.992;9.228;2023-06-14T07:09:22;3.17;;;2.88;;
21503;SDS011;10913;51.992;9.228;2023-06-14T07:11:47;2.72;;;2.50;;
21503;SDS011;10913;51.992;9.228;2023-06-14T07:14:13;2.40;;;2.20;;
21503;SDS011;10913;51.992;9.228;2023-06-14T07:16:38;3.63;;;2.70;;
21503;SDS011;10913;51.992;9.228;2023-06-14T07:19:04;2.83;;;2.40;;
21503;SDS011;10913;51.992;9.228;2023-06-14T07:21:30;3.00;;;2.70;;
21503;SDS011;10913;51.992;9.228;2023-06-14T07:23:55;3.55;;;2.60;;
21503;SDS011;10913;51.992;9.228;2023-06-14T07:26:21;2.60;;;2.40;;
21503;SDS011;10913;51.992;9.228;2023-06-14T07:28:47;3.83;;;2.42;;
21503;SDS011;10913;51.992;9.228;2023-06-14T07:31:13;2.70;;;2.50;;
21503;SDS011;10913;51.992;9.228;2023-06-14T07:33:40;2.40;;;2.20;;
21503;SDS011;10913;51.992;9.228;2023-06-14T07:36:06;4.22;;;2.10;;
21503;SDS011;10913;51.992;9.228;2023-06-14T07:38:32;2.97;;;2.45;;
21503;SDS011;10913;51.992;9.228;2023-06-14T07:40:57;3.25;;;1.95;;
21503;SDS011;10913;51.992;9.228;2023-06-14T07:43:22;2.58;;;2.00;;
21503;SDS011;10913;51.992;9.228;2023-06-14T07:45:48;3.28;;;2.20;;
21503;SDS011;10913;51.992;9.228;2023-06-14T07:48:13;2.25;;;2.05;;
21503;SDS011;10913;51.992;9.228;2023-06-14T07:50:39;2.90;;;2.08;;
21503;SDS011;10913;51.992;9.228;2023-06-14T07:53:04;3.15;;;2.30;;
21503;SDS011;10913;51.992;9.228;2023-06-14T07:55:30;2.72;;;2.17;;
21503;SDS011;10913;51.992;9.228;2023-06-14T07:57:57;2.47;;;2.20;;
21503;SDS011;10913;51.992;9.228;2023-06-14T08:00:24;3.55;;;2.38;;
21503;SDS011;10913;51.992;9.228;2023-06-14T08:02:49;3.80;;;2.30;;
21503;SDS011;10913;51.992;9.228;2023-06-14T08:05:16;3.90;;;2.17;;
21503;SDS011;10913;51.992;9.228;2023-06-14T08:07:42;2.45;;;2.20;;
21503;SDS011;10913;51.992;9.228;2023-06-14T08:10:08;4.75;;;2.20;;
21503;SDS011;10913;51.992;9.228;2023-06-14T08:12:33;4.65;;;2.20;;
21503;SDS011;10913;51.992;9.228;2023-06-14T08:14:59;4.20;;;2.20;;
21503;SDS011;10913;51.992;9.228;2023-06-14T08:17:26;2.65;;;1.88;;
21503;SDS011;10913;51.992;9.228;2023-06-14T08:19:51;2.80;;;1.95;;
21503;SDS011;10913;51.992;9.228;2023-06-14T08:22:17;2.35;;;1.75;;
21503;SDS011;10913;51.992;9.228;2023-06-14T08:24:43;2.92;;;2.25;;
21503;SDS011;10913;51.992;9.228;2023-06-14T08:27:09;4.18;;;2.10;;
21503;SDS011;10913;51.992;9.228;2023-06-14T08:29:35;2.83;;;2.10;;
21503;SDS011;10913;51.992;9.228;2023-06-14T08:32:01;5.75;;;2.63;;
21503;SDS011;10913;51.992;9.228;2023-06-14T08:34:26;3.20;;;2.13;;
21503;SDS011;10913;51.992;9.228;2023-06-14T08:36:52;2.20;;;2.00;;
21503;SDS011;10913;51.992;9.228;2023-06-14T08:39:17;2.90;;;2.20;;
21503;SDS011;10913;51.992;9.228;2023-06-14T08:41:45;3.08;;;2.10;;
21503;SDS011;10913;51.992;9.228;2023-06-14T08:44:17;4.30;;;2.00;;
21503;SDS011;10913;51.992;9.228;2023-06-14T08:46:43;4.55;;;2.00;;
21503;SDS011;10913;51.992;9.228;2023-06-14T08:49:11;3.55;;;1.60;;
21503;SDS011;10913;51.992;9.228;2023-06-14T08:51:37;3.00;;;1.90;;
21503;SDS011;10913;51.992;9.228;2023-06-14T08:54:03;2.42;;;1.85;;
21503;SDS011;10913;51.992;9.228;2023-06-14T08:56:29;2.10;;;1.90;;
21503;SDS011;10913;51.992;9.228;2023-06-14T08:58:57;3.38;;;2.10;;
21503;SDS011;10913;51.992;9.228;2023-06-14T09:01:26;2.10;;;1.90;;
21503;SDS011;10913;51.992;9.228;2023-06-14T09:03:52;3.25;;;1.98;;
21503;SDS011;10913;51.992;9.228;2023-06-14T09:06:19;2.95;;;1.85;;
21503;SDS011;10913;51.992;9.228;2023-06-14T09:08:48;2.03;;;1.92;;
21503;SDS011;10913;51.992;9.228;2023-06-14T09:11:15;1.98;;;1.70;;
21503;SDS011;10913;51.992;9.228;2023-06-14T09:13:43;2.15;;;1.95;;
21503;SDS011;10913;51.992;9.228;2023-06-14T09:16:09;2.92;;;2.03;;
21503;SDS011;10913;51.992;9.228;2023-06-14T09:18:42;2.13;;;1.90;;
21503;SDS011;10913;51.992;9.228;2023-06-14T09:23:39;2.67;;;1.80;;
21503;SDS011;10913;51.992;9.228;2023-06-14T09:26:15;2.53;;;2.10;;
21503;SDS011;10913;51.992;9.228;2023-06-14T09:28:48;2.50;;;1.90;;
21503;SDS011;10913;51.992;9.228;2023-06-14T09:31:19;2.85;;;1.77;;
21503;SDS011;10913;51.992;9.228;2023-06-14T09:33:46;1.92;;;1.70;;
21503;SDS011;10913;51.992;9.228;2023-06-14T09:36:18;3.72;;;1.90;;
21503;SDS011;10913;51.992;9.228;2023-06-14T09:38:57;3.47;;;1.70;;
21503;SDS011;10913;51.992;9.228;2023-06-14T09:41:33;2.33;;;1.80;;
21503;SDS011;10913;51.992;9.228;2023-06-14T09:44:00;5.35;;;2.22;;
21503;SDS011;10913;51.992;9.228;2023-06-14T09:46:27;2.03;;;1.80;;
21503;SDS011;10913;51.992;9.228;2023-06-14T09:48:54;2.53;;;1.90;;
21503;SDS011;10913;51.992;9.228;2023-06-14T09:51:24;3.70;;;1.85;;
21503;SDS011;10913;51.992;9.228;2023-06-14T09:53:51;4.50;;;1.92;;
21503;SDS011;10913;51.992;9.228;2023-06-14T09:56:25;2.15;;;1.90;;
21503;SDS011;10913;51.992;9.228;2023-06-14T09:58:55;4.15;;;2.05;;
21503;SDS011;10913;51.992;9.228;2023-06-14T10:01:21;3.67;;;2.05;;
21503;SDS011;10913;51.992;9.228;2023-06-14T10:03:52;2.13;;;1.90;;
21503;SDS011;10913;51.992;9.228;2023-06-14T10:06:23;1.77;;;1.63;;
21503;SDS011;10913;51.992;9.228;2023-06-14T10:08:52;2.47;;;1.95;;
21503;SDS011;10913;51.992;9.228;2023-06-14T10:11:21;1.92;;;1.83;;
21503;SDS011;10913;51.992;9.228;2023-06-14T10:13:46;3.72;;;1.85;;
21503;SDS011;10913;51.992;9.228;2023-06-14T10:16:15;2.58;;;1.80;;
21503;SDS011;10913;51.992;9.228;2023-06-14T10:21:55;2.35;;;1.70;;
21503;SDS011;10913;51.992;9.228;2023-06-14T10:24:28;1.75;;;1.65;;
21503;SDS011;10913;51.992;9.228;2023-06-14T10:26:57;2.83;;;2.05;;
21503;SDS011;10913;51.992;9.228;2023-06-14T10:29:24;2.25;;;2.00;;
21503;SDS011;10913;51.992;9.228;2023-06-14T10:31:50;1.70;;;1.60;;
21503;SDS011;10913;51.992;9.228;2023-06-14T10:34:25;3.88;;;1.95;;
21503;SDS011;10913;51.992;9.228;2023-06-14T10:39:28;3.25;;;2.00;;
21503;SDS011;10913;51.992;9.228;2023-06-14T10:41:55;2.10;;;1.90;;
21503;SDS011;10913;51.992;9.228;2023-06-14T10:46:54;2.05;;;1.88;;
21503;SDS011;10913;51.992;9.228;2023-06-14T10:49:20;2.75;;;1.70;;
21503;SDS011;10913;51.992;9.228;2023-06-14T10:52:05;2.45;;;1.63;;
21503;SDS011;10913;51.992;9.228;2023-06-14T10:54:37;1.77;;;1.67;;
21503;SDS011;10913;51.992;9.228;2023-06-14T10:57:03;3.42;;;1.75;;
21503;SDS011;10913;51.992;9.228;2023-06-14T10:59:32;1.92;;;1.80;;
21503;SDS011;10913;51.992;9.228;2023-06-14T11:04:50;3.10;;;1.98;;
21503;SDS011;10913;51.992;9.228;2023-06-14T11:10:20;2.70;;;1.70;;
21503;SDS011;10913;51.992;9.228;2023-06-14T11:12:52;3.83;;;1.90;;
21503;SDS011;10913;51.992;9.228;2023-06-14T11:15:19;1.60;;;1.50;;
21503;SDS011;10913;51.992;9.228;2023-06-14T11:17:51;1.70;;;1.60;;
21503;SDS011;10913;51.992;9.228;2023-06-14T11:20:18;2.38;;;1.83;;
21503;SDS011;10913;51.992;9.228;2023-06-14T11:22:45;1.60;;;1.50;;
21503;SDS011;10913;51.992;9.228;2023-06-14T11:25:13;1.60;;;1.50;;
21503;SDS011;10913;51.992;9.228;2023-06-14T11:27:41;2.30;;;1.52;;
21503;SDS011;10913;51.992;9.228;2023-06-14T11:30:08;4.40;;;1.80;;
21503;SDS011;10913;51.992;9.228;2023-06-14T11:32:37;2.35;;;1.70;;
21503;SDS011;10913;51.992;9.228;2023-06-14T11:35:03;2.13;;;1.77;;
21503;SDS011;10913;51.992;9.228;2023-06-14T11:37:33;1.88;;;1.52;;
21503;SDS011;10913;51.992;9.228;2023-06-14T11:39:58;1.70;;;1.60;;
21503;SDS011;10913;51.992;9.228;2023-06-14T11:42:27;2.42;;;1.67;;
21503;SDS011;10913;51.992;9.228;2023-06-14T11:44:54;2.97;;;1.70;;
21503;SDS011;10913;51.992;9.228;2023-06-14T11:47:20;2.30;;;1.77;;
21503;SDS011;10913;51.992;9.228;2023-06-14T11:49:45;1.60;;;1.50;;
21503;SDS011;10913;51.992;9.228;2023-06-14T11:52:11;1.60;;;1.50;;
21503;SDS011;10913;51.992;9.228;2023-06-14T11:54:37;1.95;;;1.67;;
21503;SDS011;10913;51.992;9.228;2023-06-14T11:57:03;1.70;;;1.60;;
21503;SDS011;10913;51.992;9.228;2023-06-14T11:59:29;3.47;;;1.80;;
21503;SDS011;10913;51.992;9.228;2023-06-14T12:01:56;1.80;;;1.70;;
21503;SDS011;10913;51.992;9.228;2023-06-14T12:04:28;1.98;;;1.88;;
21503;SDS011;10913;51.992;9.228;2023-06-14T12:06:54;4.90;;;1.80;;
21503;SDS011;10913;51.992;9.228;2023-06-14T12:09:21;1.63;;;1.50;;
21503;SDS011;10913;51.992;9.228;2023-06-14T12:11:51;2.72;;;1.80;;
21503;SDS011;10913;51.992;9.228;2023-06-14T12:14:30;1.63;;;1.52;;
21503;SDS011;10913;51.992;9.228;2023-06-14T12:17:03;1.70;;;1.50;;
21503;SDS011;10913;51.992;9.228;2023-06-14T12:19:32;1.63;;;1.33;;
21503;SDS011;10913;51.992;9.228;2023-06-14T12:21:59;3.42;;;1.90;;
21503;SDS011;10913;51.992;9.228;2023-06-14T12:24:30;2.45;;;1.83;;
21503;SDS011;10913;51.992;9.228;2023-06-14T12:26:57;3.03;;;1.55;;
21503;SDS011;10913;51.992;9.228;2023-06-14T12:29:24;2.13;;;1.50;;
21503;SDS011;10913;51.992;9.228;2023-06-14T12:31:50;1.80;;;1.65;;
21503;SDS011;10913;51.992;9.228;2023-06-14T12:34:15;2.88;;;1.75;;
21503;SDS011;10913;51.992;9.228;2023-06-14T12:36:41;2.08;;;1.73;;
21503;SDS011;10913;51.992;9.228;2023-06-14T12:39:07;2.35;;;1.80;;
21503;SDS011;10913;51.992;9.228;2023-06-14T12:41:33;2.63;;;1.90;;
21503;SDS011;10913;51.992;9.228;2023-06-14T12:43:59;2.30;;;1.92;;
21503;SDS011;10913;51.992;9.228;2023-06-14T12:46:26;2.10;;;1.83;;
21503;SDS011;10913;51.992;9.228;2023-06-14T12:48:51;2.80;;;1.90;;
21503;SDS011;10913;51.992;9.228;2023-06-14T12:51:17;2.53;;;2.00;;
21503;SDS011;10913;51.992;9.228;2023-06-14T12:53:42;2.80;;;1.90;;
21503;SDS011;10913;51.992;9.228;2023-06-14T12:56:09;2.17;;;2.00;;
21503;SDS011;10913;51.992;9.228;2023-06-14T12:58:34;2.00;;;1.90;;
21503;SDS011;10913;51.992;9.228;2023-06-14T13:00:59;3.33;;;2.15;;
21503;SDS011;10913;51.992;9.228;2023-06-14T13:03:25;6.63;;;2.13;;
21503;SDS011;10913;51.992;9.228;2023-06-14T13:05:50;4.72;;;2.30;;
21503;SDS011;10913;51.992;9.228;2023-06-14T13:08:15;2.60;;;2.10;;
21503;SDS011;10913;51.992;9.228;2023-06-14T13:10:41;4.07;;;2.53;;
21503;SDS011;10913;51.992;9.228;2023-06-14T13:13:06;3.05;;;2.20;;
21503;SDS011;10913;51.992;9.228;2023-06-14T13:15:32;3.10;;;2.20;;
21503;SDS011;10913;51.992;9.228;2023-06-14T13:17:58;3.67;;;2.38;;
21503;SDS011;10913;51.992;9.228;2023-06-14T13:20:23;3.78;;;2.30;;
21503;SDS011;10913;51.992;9.228;2023-06-14T13:22:48;3.10;;;2.25;;
21503;SDS011;10913;51.992;9.228;2023-06-14T13:25:14;3.88;;;2.30;;
21503;SDS011;10913;51.992;9.228;2023-06-14T13:27:40;2.88;;;2.28;;
21503;SDS011;10913;51.992;9.228;2023-06-14T13:30:05;3.33;;;2.55;;
21503;SDS011;10913;51.992;9.228;2023-06-14T13:32:31;3.53;;;2.50;;
21503;SDS011;10913;51.992;9.228;2023-06-14T13:34:57;6.22;;;2.40;;
21503;SDS011;10913;51.992;9.228;2023-06-14T13:37:22;2.78;;;2.33;;
21503;SDS011;10913;51.992;9.228;2023-06-14T13:39:48;2.92;;;2.70;;
21503;SDS011;10913;51.992;9.228;2023-06-14T13:42:13;3.42;;;2.35;;
21503;SDS011;10913;51.992;9.228;2023-06-14T13:44:38;2.55;;;2.35;;
21503;SDS011;10913;51.992;9.228;2023-06-14T13:47:04;2.58;;;2.22;;
21503;SDS011;10913;51.992;9.228;2023-06-14T13:49:30;3.60;;;2.30;;
21503;SDS011;10913;51.992;9.228;2023-06-14T13:51:56;2.50;;;2.30;;
21503;SDS011;10913;51.992;9.228;2023-06-14T13:54:21;4.10;;;2.30;;
21503;SDS011;10913;51.992;9.228;2023-06-14T13:56:47;3.83;;;2.70;;
21503;SDS011;10913;51.992;9.228;2023-06-14T13:59:12;3.10;;;2.50;;
21503;SDS011;10913;51.992;9.228;2023-06-14T14:01:38;2.75;;;2.55;;
21503;SDS011;10913;51.992;9.228;2023-06-14T14:04:03;4.15;;;2.83;;
21503;SDS011;10913;51.992;9.228;2023-06-14T14:06:29;3.63;;;2.70;;
21503;SDS011;10913;51.992;9.228;2023-06-14T14:08:55;3.83;;;2.55;;
21503;SDS011;10913;51.992;9.228;2023-06-14T14:11:21;4.57;;;2.70;;
21503;SDS011;10913;51.992;9.228;2023-06-14T14:13:47;3.25;;;2.58;;
21503;SDS011;10913;51.992;9.228;2023-06-14T14:16:12;3.50;;;3.03;;
21503;SDS011;10913;51.992;9.228;2023-06-14T14:18:38;3.72;;;2.80;;
21503;SDS011;10913;51.992;9.228;2023-06-14T14:21:03;2.97;;;2.70;;
21503;SDS011;10913;51.992;9.228;2023-06-14T14:23:29;3.78;;;3.00;;
21503;SDS011;10913;51.992;9.228;2023-06-14T14:25:54;4.18;;;3.10;;
21503;SDS011;10913;51.992;9.228;2023-06-14T14:28:20;3.20;;;2.60;;
21503;SDS011;10913;51.992;9.228;2023-06-14T14:30:46;5.47;;;2.95;;
21503;SDS011;10913;51.992;9.228;2023-06-14T14:33:12;2.95;;;2.65;;
21503;SDS011;10913;51.992;9.228;2023-06-14T14:35:41;3.35;;;2.92;;
21503;SDS011;10913;51.992;9.228;2023-06-14T14:38:07;5.65;;;3.20;;
21503;SDS011;10913;51.992;9.228;2023-06-14T14:40:32;4.47;;;2.72;;
21503;SDS011;10913;51.992;9.228;2023-06-14T14:42:57;3.38;;;2.90;;
21503;SDS011;10913;51.992;9.228;2023-06-14T14:45:23;7.05;;;2.90;;
21503;SDS011;10913;51.992;9.228;2023-06-14T14:47:48;5.03;;;2.72;;
21503;SDS011;10913;51.992;9.228;2023-06-14T14:50:14;4.57;;;3.05;;
21503;SDS011;10913;51.992;9.228;2023-06-14T14:52:39;3.30;;;3.00;;
21503;SDS011;10913;51.992;9.228;2023-06-14T14:55:05;3.90;;;3.00;;
21503;SDS011;10913;51.992;9.228;2023-06-14T14:57:31;5.03;;;3.25;;
21503;SDS011;10913;51.992;9.228;2023-06-14T14:59:57;5.20;;;3.10;;
21503;SDS011;10913;51.992;9.228;2023-06-14T15:02:22;7.38;;;3.00;;
21503;SDS011;10913;51.992;9.228;2023-06-14T15:04:49;5.55;;;3.10;;